Time;durP1;ratioP1;P1;durP2;ratioP2;P2;SDS_P1;SDS_P2;PMS_P1;PMS_P2;Temp;Humidity;BMP_temperature;BMP_pressure;BME280_temperature;BME280_humidity;BME280_pressure;Samples;Min_cycle;Max_cycle;Signal;HPM_P1;HPM_P2
2023/03/13 00:01:25;;;;;;;5.57;4.13;;;;;;;7.45;100.00;96265.38;5051108;28;20229;-63
2023/03/13 00:03:51;;;;;;;12.87;5.13;;;;;;;7.42;100.00;96263.19;5053324;28;20257;-63
2023/03/13 00:06:17;;;;;;;12.67;4.87;;;;;;;7.41;100.00;96265.00;5052458;28;20277;-62
2023/03/13 00:08:43;;;;;;;9.47;4.87;;;;;;;7.35;100.00;96260.69;5052749;28;20206;-63
2023/03/13 00:11:11;;;;;;;8.43;4.43;;;;;;;7.38;100.00;96264.66;5053301;28;20190;-63
2023/03/13 00:13:36;;;;;;;10.80;4.63;;;;;;;7.34;100.00;96259.09;5053164;28;20166;-63
2023/03/13 00:16:08;;;;;;;10.83;4.23;;;;;;;7.33;100.00;96267.94;5051808;28;20642;-63
2023/03/13 00:18:34;;;;;;;12.90;4.63;;;;;;;7.32;100.00;96252.50;5053140;28;20216;-63
2023/03/13 00:21:08;;;;;;;7.27;4.60;;;;;;;7.29;100.00;96256.34;5053256;28;20178;-63
2023/03/13 00:23:35;;;;;;;7.53;4.40;;;;;;;7.31;100.00;96253.50;5053378;28;20178;-63
2023/03/13 00:26:04;;;;;;;10.93;5.03;;;;;;;7.26;100.00;96250.75;5053163;28;20581;-63
2023/03/13 00:28:32;;;;;;;6.60;4.40;;;;;;;7.35;100.00;96259.91;5052818;28;20260;-64
2023/03/13 00:31:18;;;;;;;10.07;5.10;;;;;;;7.33;100.00;96254.91;5052911;28;20193;-63
2023/03/13 00:33:48;;;;;;;8.97;4.80;;;;;;;7.32;100.00;96249.91;5052829;28;20166;-63
2023/03/13 00:36:23;;;;;;;9.23;5.23;;;;;;;7.35;100.00;96254.69;5053089;28;20217;-64
2023/03/13 00:38:50;;;;;;;15.53;5.40;;;;;;;7.41;100.00;96243.38;5052496;28;20197;-64
2023/03/13 00:41:20;;;;;;;10.97;5.03;;;;;;;7.36;100.00;96243.22;5052841;28;20178;-63
2023/03/13 00:43:46;;;;;;;7.70;5.13;;;;;;;7.33;100.00;96248.88;5050283;28;20193;-64
2023/03/13 00:46:14;;;;;;;11.90;4.87;;;;;;;7.36;100.00;96246.63;5052455;28;20170;-64
2023/03/13 00:48:40;;;;;;;11.63;5.80;;;;;;;7.35;100.00;96244.25;5052287;28;20579;-64
2023/03/13 00:51:06;;;;;;;10.87;5.37;;;;;;;7.44;100.00;96237.72;5051740;28;20201;-64
2023/03/13 00:53:31;;;;;;;9.00;5.00;;;;;;;7.56;100.00;96229.94;5051175;28;20555;-63
2023/03/13 00:56:03;;;;;;;9.10;4.37;;;;;;;7.46;100.00;96223.47;5052585;28;20257;-62
2023/03/13 00:58:30;;;;;;;9.30;4.83;;;;;;;7.42;100.00;96230.09;5052102;28;20209;-63
2023/03/13 01:00:56;;;;;;;12.73;5.20;;;;;;;7.49;100.00;96230.03;5050277;28;20260;-62
2023/03/13 01:03:26;;;;;;;9.50;5.23;;;;;;;7.40;100.00;96226.94;5052379;28;20179;-64
2023/03/13 01:05:56;;;;;;;13.53;4.73;;;;;;;7.43;100.00;96218.66;5051779;28;20661;-64
2023/03/13 01:08:22;;;;;;;13.27;5.13;;;;;;;7.56;100.00;96220.31;5052252;28;20258;-63
2023/03/13 01:10:47;;;;;;;11.97;4.83;;;;;;;7.43;100.00;96210.06;5051948;28;20201;-63
2023/03/13 01:13:12;;;;;;;10.70;5.00;;;;;;;7.45;100.00;96198.41;5052197;28;20227;-63
2023/03/13 01:15:38;;;;;;;9.70;4.77;;;;;;;7.49;100.00;96198.75;5052346;28;20273;-63
2023/03/13 01:18:03;;;;;;;11.50;4.90;;;;;;;7.33;100.00;96194.94;5052303;28;20216;-63
2023/03/13 01:20:29;;;;;;;12.27;5.47;;;;;;;7.41;100.00;96192.00;5052435;28;20193;-63
2023/03/13 01:22:55;;;;;;;8.37;5.53;;;;;;;7.49;100.00;96183.09;5052408;28;20189;-62
2023/03/13 01:25:20;;;;;;;11.40;5.53;;;;;;;7.44;100.00;96180.34;5052296;28;20177;-63
2023/03/13 01:27:46;;;;;;;13.40;6.13;;;;;;;7.30;100.00;96171.91;5052162;28;20335;-63
2023/03/13 01:30:11;;;;;;;14.97;5.50;;;;;;;7.34;100.00;96167.88;5052496;28;20217;-62
2023/03/13 01:32:37;;;;;;;12.73;5.10;;;;;;;7.46;100.00;96167.91;5052643;28;20216;-64
2023/03/13 01:35:02;;;;;;;12.53;5.40;;;;;;;7.45;100.00;96159.28;5052180;28;20178;-64
2023/03/13 01:37:28;;;;;;;11.27;5.73;;;;;;;7.46;100.00;96160.88;5051714;28;20182;-64
2023/03/13 01:39:53;;;;;;;9.43;4.60;;;;;;;7.41;100.00;96165.19;5052043;28;20178;-64
2023/03/13 01:42:19;;;;;;;13.43;4.93;;;;;;;7.41;100.00;96158.13;5051992;28;20205;-64
2023/03/13 01:44:49;;;;;;;11.50;4.30;;;;;;;7.45;100.00;96145.47;5051715;28;20177;-64
2023/03/13 01:47:15;;;;;;;9.53;4.40;;;;;;;7.55;100.00;96142.31;5049934;28;20189;-64
2023/03/13 01:49:43;;;;;;;10.33;4.67;;;;;;;7.50;100.00;96133.34;5051359;28;20209;-64
2023/03/13 01:52:27;;;;;;;9.00;4.30;;;;;;;7.43;100.00;96131.84;5050096;28;20189;-64
2023/03/13 01:54:58;;;;;;;10.80;4.90;;;;;;;7.39;100.00;96138.53;5052715;28;20656;-63
2023/03/13 01:57:41;;;;;;;8.43;4.17;;;;;;;7.51;100.00;96123.72;5055285;28;20236;-64
2023/03/13 02:00:10;;;;;;;8.90;4.40;;;;;;;7.57;100.00;96109.00;5053588;28;20227;-64
2023/03/13 02:02:39;;;;;;;12.47;4.73;;;;;;;7.53;100.00;96108.63;5054556;28;20524;-63
2023/03/13 02:05:06;;;;;;;7.17;4.17;;;;;;;7.56;100.00;96097.75;5055219;28;20185;-63
2023/03/13 02:07:44;;;;;;;9.10;4.57;;;;;;;7.60;100.00;96098.09;5055360;28;20181;-63
2023/03/13 02:10:12;;;;;;;10.93;4.93;;;;;;;7.65;100.00;96091.19;5055231;28;20201;-64
2023/03/13 02:12:39;;;;;;;8.23;4.50;;;;;;;7.64;100.00;96086.97;5055566;28;20235;-63
2023/03/13 02:15:10;;;;;;;5.37;4.43;;;;;;;7.65;100.00;96093.00;5055832;28;20208;-62
2023/03/13 02:17:36;;;;;;;8.20;4.67;;;;;;;7.68;100.00;96084.75;5055335;28;20248;-64
2023/03/13 02:20:02;;;;;;;8.63;4.90;;;;;;;7.62;100.00;96080.41;5055370;28;20162;-64
2023/03/13 02:22:37;;;;;;;14.33;4.93;;;;;;;7.63;100.00;96088.03;5055229;28;20677;-63
2023/03/13 02:25:24;;;;;;;7.43;4.60;;;;;;;7.61;100.00;96089.25;5055218;28;20173;-64
2023/03/13 02:28:32;;;;;;;10.07;4.80;;;;;;;7.66;100.00;96086.75;5055010;28;20197;-64
2023/03/13 02:30:58;;;;;;;8.83;4.60;;;;;;;7.67;100.00;96083.16;5013055;28;20207;-64
2023/03/13 02:33:30;;;;;;;6.97;4.13;;;;;;;7.73;100.00;96087.47;5047818;28;20193;-64
2023/03/13 02:35:57;;;;;;;7.50;4.30;;;;;;;7.81;100.00;96074.88;5055211;28;20224;-64
2023/03/13 02:38:28;;;;;;;8.27;4.37;;;;;;;7.84;100.00;96077.03;5053738;28;20264;-63
2023/03/13 02:40:55;;;;;;;5.90;4.50;;;;;;;7.93;100.00;96070.44;5055322;28;20224;-62
2023/03/13 02:43:28;;;;;;;6.50;4.07;;;;;;;8.02;100.00;96070.13;5055223;28;20170;-61
2023/03/13 02:46:07;;;;;;;4.70;3.70;;;;;;;8.08;100.00;96064.00;5060111;28;20174;-63
2023/03/13 02:48:39;;;;;;;6.10;4.43;;;;;;;8.06;100.00;96055.59;5068987;28;20249;-62
2023/03/13 02:51:28;;;;;;;10.47;5.30;;;;;;;8.17;100.00;96050.34;5056612;28;20241;-63
2023/03/13 02:54:04;;;;;;;5.87;4.70;;;;;;;8.20;100.00;96043.88;5054709;28;20531;-62
2023/03/13 02:56:33;;;;;;;9.20;4.57;;;;;;;8.25;100.00;96042.16;5052998;28;20184;-63
2023/03/13 02:59:18;;;;;;;9.40;4.53;;;;;;;8.26;100.00;96030.69;5054449;28;20280;-64
2023/03/13 03:01:43;;;;;;;6.07;4.23;;;;;;;8.21;100.00;96025.38;5031883;28;20236;-63
2023/03/13 03:04:10;;;;;;;5.00;4.37;;;;;;;8.28;100.00;96027.88;5034045;28;20553;-63
2023/03/13 03:06:36;;;;;;;5.17;4.73;;;;;;;8.35;100.00;96018.13;5033769;28;20269;-64
2023/03/13 03:09:01;;;;;;;6.93;4.43;;;;;;;8.34;100.00;96012.09;5034932;28;20277;-63
2023/03/13 03:11:27;;;;;;;4.30;3.90;;;;;;;8.27;100.00;96008.00;5034075;28;20643;-63
2023/03/13 03:13:53;;;;;;;5.23;4.37;;;;;;;8.36;100.00;96004.03;5034425;28;21010;-62
2023/03/13 03:16:19;;;;;;;4.73;4.20;;;;;;;8.34;100.00;95995.66;5034138;28;20253;-64
2023/03/13 03:18:45;;;;;;;6.23;4.73;;;;;;;8.37;100.00;95995.16;5034259;28;20252;-62
2023/03/13 03:21:11;;;;;;;5.00;4.33;;;;;;;8.37;100.00;95994.38;5034846;28;20175;-63
2023/03/13 03:23:37;;;;;;;5.37;4.00;;;;;;;8.38;100.00;95994.16;5034669;28;20541;-61
2023/03/13 03:26:04;;;;;;;5.30;3.40;;;;;;;8.39;100.00;95990.53;5034278;28;20538;-64
2023/03/13 03:28:34;;;;;;;5.77;4.10;;;;;;;8.45;100.00;95994.03;5033788;28;20210;-64
2023/03/13 03:31:11;;;;;;;5.07;3.43;;;;;;;8.39;100.00;95987.91;5034394;28;20275;-64
2023/03/13 03:33:37;;;;;;;3.43;3.10;;;;;;;8.39;100.00;95985.31;5035891;28;20524;-66
2023/03/13 03:36:05;;;;;;;6.87;3.53;;;;;;;8.48;100.00;95980.50;5035738;28;20186;-65
2023/03/13 03:38:31;;;;;;;5.27;3.33;;;;;;;8.46;100.00;95980.75;5033809;28;20274;-65
2023/03/13 03:40:57;;;;;;;4.83;4.33;;;;;;;8.38;100.00;95975.88;5033896;28;20244;-65
2023/03/13 03:43:23;;;;;;;6.20;4.00;;;;;;;8.42;100.00;95971.75;5034179;28;20309;-65
2023/03/13 03:45:48;;;;;;;5.27;3.77;;;;;;;8.43;100.00;95973.34;5033826;28;20666;-65
2023/03/13 03:48:14;;;;;;;4.17;3.40;;;;;;;8.45;100.00;95973.94;5033560;28;20205;-64
2023/03/13 03:50:39;;;;;;;3.80;3.47;;;;;;;8.47;100.00;95966.63;5031744;28;20207;-64
2023/03/13 03:53:04;;;;;;;4.80;3.40;;;;;;;8.50;100.00;95966.19;5033702;28;20635;-65
2023/03/13 03:55:30;;;;;;;3.67;3.23;;;;;;;8.58;100.00;95972.88;5033689;28;20614;-65
2023/03/13 03:57:55;;;;;;;4.00;3.70;;;;;;;8.57;100.00;95972.06;5033180;28;20204;-64
2023/03/13 04:00:22;;;;;;;6.33;3.37;;;;;;;8.64;100.00;95961.47;5039802;28;20756;-64
2023/03/13 04:02:48;;;;;;;3.90;3.07;;;;;;;8.74;100.00;95975.53;5052306;28;20186;-64
2023/03/13 04:05:13;;;;;;;3.23;3.03;;;;;;;8.77;100.00;95969.81;5052845;28;20193;-63
2023/03/13 04:07:39;;;;;;;3.93;3.57;;;;;;;8.84;100.00;95974.09;5053228;28;20162;-65
2023/03/13 04:10:05;;;;;;;3.50;3.30;;;;;;;8.90;100.00;95968.72;5052514;28;20220;-66
2023/03/13 04:12:30;;;;;;;4.13;3.30;;;;;;;8.98;100.00;95976.16;5053354;28;20178;-64
2023/03/13 04:14:56;;;;;;;3.67;3.10;;;;;;;9.00;100.00;95974.13;5052159;28;20639;-63
2023/03/13 04:17:21;;;;;;;6.13;4.23;;;;;;;9.10;100.00;95963.03;5052981;28;20162;-63
2023/03/13 04:19:47;;;;;;;5.83;5.27;;;;;;;9.08;100.00;95958.03;5053178;28;20198;-63
2023/03/13 04:22:12;;;;;;;4.70;4.33;;;;;;;9.19;100.00;95959.00;5053090;28;20242;-64
2023/03/13 04:24:37;;;;;;;4.57;4.27;;;;;;;9.24;100.00;95964.31;5051745;28;20177;-64
2023/03/13 04:27:05;;;;;;;5.70;5.47;;;;;;;9.20;100.00;95955.34;5052899;28;20182;-65
2023/03/13 04:29:34;;;;;;;6.20;5.90;;;;;;;9.32;100.00;95955.25;5052883;28;20658;-64
2023/03/13 04:31:59;;;;;;;6.97;6.57;;;;;;;9.40;100.00;95954.88;5053168;28;20198;-63
2023/03/13 04:34:25;;;;;;;6.97;6.57;;;;;;;9.47;100.00;95963.34;5053290;28;20170;-64
2023/03/13 04:36:50;;;;;;;5.63;5.23;;;;;;;9.49;100.00;95963.88;5052944;28;20174;-64
2023/03/13 04:39:16;;;;;;;4.23;3.90;;;;;;;9.60;100.00;95945.47;5052180;28;20205;-65
2023/03/13 04:41:41;;;;;;;3.87;3.70;;;;;;;9.64;100.00;95935.31;5052814;28;20690;-64
2023/03/13 04:44:07;;;;;;;3.73;3.53;;;;;;;9.66;100.00;95942.94;5053007;28;20178;-64
2023/03/13 04:46:32;;;;;;;4.60;4.40;;;;;;;9.67;100.00;95940.09;5052512;28;20692;-65
2023/03/13 04:48:58;;;;;;;4.40;4.10;;;;;;;9.66;100.00;95945.56;5052636;28;20209;-65
2023/03/13 04:51:23;;;;;;;4.07;3.87;;;;;;;9.70;100.00;95950.06;5050443;28;20244;-64
2023/03/13 04:53:49;;;;;;;6.97;6.67;;;;;;;9.67;100.00;95945.31;5052362;28;20185;-64
2023/03/13 04:56:22;;;;;;;5.13;4.73;;;;;;;9.68;100.00;95948.72;5052582;28;20196;-64
2023/03/13 04:58:47;;;;;;;5.83;5.50;;;;;;;9.72;100.00;95944.59;5051905;28;20198;-64
2023/03/13 05:01:13;;;;;;;4.97;4.67;;;;;;;9.73;100.00;95943.56;5049958;28;20221;-64
2023/03/13 05:03:38;;;;;;;4.77;4.47;;;;;;;9.79;100.00;95948.63;5052323;28;20239;-64
2023/03/13 05:06:04;;;;;;;4.33;4.03;;;;;;;9.74;100.00;95938.09;5051709;28;20189;-64
2023/03/13 05:08:36;;;;;;;4.00;3.70;;;;;;;9.73;100.00;95946.19;5056395;28;20217;-64
2023/03/13 05:11:02;;;;;;;3.70;3.50;;;;;;;9.74;100.00;95934.69;5051782;28;20202;-64
2023/03/13 05:13:28;;;;;;;3.03;2.93;;;;;;;9.79;100.00;95943.41;5050741;28;20177;-64
2023/03/13 05:18:21;;;;;;;3.73;3.53;;;;;;;9.90;100.00;95942.50;5049683;28;20732;-64
2023/03/13 05:20:47;;;;;;;3.57;3.27;;;;;;;9.88;100.00;95949.78;5052529;28;20166;-64
2023/03/13 05:23:12;;;;;;;3.87;3.57;;;;;;;9.83;100.00;95944.50;5052454;28;20170;-64
2023/03/13 05:25:37;;;;;;;4.37;4.17;;;;;;;9.89;100.00;95932.25;5052671;28;20166;-65
2023/03/13 05:28:03;;;;;;;5.23;4.73;;;;;;;9.89;100.00;95932.25;5052022;28;20202;-65
2023/03/13 05:30:29;;;;;;;4.80;4.60;;;;;;;9.88;100.00;95936.69;5054461;28;20197;-65
2023/03/13 05:32:54;;;;;;;4.63;4.43;;;;;;;9.90;100.00;95944.31;5056750;28;20264;-65
2023/03/13 05:35:19;;;;;;;4.47;4.27;;;;;;;9.91;100.00;95956.38;5056360;28;20180;-64
2023/03/13 05:37:45;;;;;;;4.57;4.27;;;;;;;9.93;100.00;95952.47;5056332;28;20202;-64
2023/03/13 05:40:11;;;;;;;4.30;4.10;;;;;;;9.97;100.00;95934.47;5057049;28;20181;-65
2023/03/13 05:42:37;;;;;;;5.03;4.60;;;;;;;9.98;100.00;95930.78;5056456;28;20180;-65
2023/03/13 05:45:03;;;;;;;4.53;4.30;;;;;;;9.95;100.00;95937.31;5056616;28;20174;-64
2023/03/13 05:47:28;;;;;;;5.40;5.00;;;;;;;9.98;100.00;95930.78;5056559;28;20645;-65
2023/03/13 05:49:54;;;;;;;5.13;4.80;;;;;;;10.00;100.00;95931.34;5056555;28;20596;-64
2023/03/13 05:52:19;;;;;;;4.57;4.37;;;;;;;10.00;100.00;95921.66;5054553;28;20185;-64
2023/03/13 05:54:45;;;;;;;4.80;4.60;;;;;;;10.05;100.00;95930.63;5054927;28;20269;-64
2023/03/13 05:57:11;;;;;;;5.43;5.13;;;;;;;10.07;100.00;95924.09;5055056;28;20193;-64
2023/03/13 05:59:37;;;;;;;6.37;5.97;;;;;;;10.09;100.00;95921.22;5055691;28;20197;-66
2023/03/13 06:02:02;;;;;;;3.47;3.37;;;;;;;10.08;100.00;95917.84;5055907;28;20221;-66
2023/03/13 06:04:28;;;;;;;3.30;3.20;;;;;;;10.07;100.00;95910.22;5056148;28;20213;-66
2023/03/13 06:06:53;;;;;;;3.73;3.53;;;;;;;10.11;100.00;95914.72;5055364;28;20190;-65
2023/03/13 06:09:19;;;;;;;4.33;4.13;;;;;;;10.14;100.00;95922.06;5055533;28;20210;-66
2023/03/13 06:11:44;;;;;;;4.57;4.37;;;;;;;10.14;100.00;95923.94;5056219;28;20214;-65
2023/03/13 06:14:10;;;;;;;5.00;4.80;;;;;;;10.23;100.00;95923.28;5055819;28;20188;-65
2023/03/13 06:16:35;;;;;;;4.63;4.33;;;;;;;10.25;100.00;95923.81;5064236;28;20705;-65
2023/03/13 06:19:01;;;;;;;4.73;4.37;;;;;;;10.37;100.00;95914.00;5053572;28;20731;-66
2023/03/13 06:21:28;;;;;;;3.00;2.90;;;;;;;10.39;100.00;95925.03;5055509;28;20178;-67
2023/03/13 06:23:54;;;;;;;3.90;3.67;;;;;;;10.40;100.00;95918.75;5055574;28;20197;-66
2023/03/13 06:26:23;;;;;;;3.60;3.43;;;;;;;10.38;100.00;95917.41;5055315;28;20183;-64
2023/03/13 06:28:48;;;;;;;4.00;3.67;;;;;;;10.47;100.00;95929.03;5055407;28;20585;-64
2023/03/13 06:31:14;;;;;;;4.30;3.93;;;;;;;10.56;100.00;95930.16;5055214;28;20190;-66
2023/03/13 06:33:39;;;;;;;3.10;3.00;;;;;;;10.52;100.00;95933.53;5055324;28;20174;-66
2023/03/13 06:36:05;;;;;;;2.83;2.70;;;;;;;10.61;100.00;95929.44;5055112;28;20189;-66
2023/03/13 06:38:30;;;;;;;3.03;2.93;;;;;;;10.66;100.00;95929.47;5053750;28;20229;-67
2023/03/13 06:40:57;;;;;;;2.83;2.73;;;;;;;10.71;100.00;95921.66;5055532;28;20312;-66
2023/03/13 06:43:22;;;;;;;3.77;3.50;;;;;;;10.83;100.00;95915.22;5055671;28;20245;-66
2023/03/13 06:45:49;;;;;;;3.90;3.80;;;;;;;10.89;100.00;95923.91;5055366;28;20211;-66
2023/03/13 06:48:14;;;;;;;3.00;2.90;;;;;;;10.97;100.00;95926.09;5054132;28;20213;-66
2023/03/13 06:50:40;;;;;;;3.40;3.20;;;;;;;11.05;100.00;95923.00;5055179;28;20202;-66
2023/03/13 06:53:06;;;;;;;3.63;3.53;;;;;;;11.05;100.00;95935.31;5055502;28;20188;-66
2023/03/13 06:55:32;;;;;;;3.37;3.13;;;;;;;11.07;100.00;95930.63;5055742;28;20177;-63
2023/03/13 06:57:57;;;;;;;3.27;2.93;;;;;;;11.11;100.00;95924.63;5054647;28;20209;-63
2023/03/13 07:00:23;;;;;;;3.03;2.83;;;;;;;11.10;100.00;95938.78;5054117;28;20169;-64
2023/03/13 07:02:49;;;;;;;2.77;2.70;;;;;;;11.01;100.00;95945.53;5054573;28;20206;-63
2023/03/13 07:05:15;;;;;;;2.60;2.50;;;;;;;11.05;100.00;95949.22;5053599;28;20280;-63
2023/03/13 07:07:42;;;;;;;3.03;2.93;;;;;;;11.01;100.00;95937.66;5057898;28;20213;-63
2023/03/13 07:10:09;;;;;;;4.77;4.57;;;;;;;10.97;100.00;95927.94;5058669;28;20212;-64
2023/03/13 07:12:35;;;;;;;4.57;4.27;;;;;;;10.99;100.00;95955.47;5062849;28;20178;-66
2023/03/13 07:15:02;;;;;;;4.10;3.90;;;;;;;11.06;100.00;95960.50;5051784;28;20654;-65
2023/03/13 07:17:27;;;;;;;4.50;4.20;;;;;;;11.05;100.00;95957.09;5047329;28;20241;-64
2023/03/13 07:19:53;;;;;;;3.97;3.70;;;;;;;11.05;100.00;95958.91;5049452;28;20198;-66
2023/03/13 07:22:18;;;;;;;8.33;6.07;;;;;;;11.81;100.00;95956.88;5053224;28;20189;-64
2023/03/13 07:24:44;;;;;;;3.87;3.77;;;;;;;11.57;100.00;95949.34;5053840;28;20197;-64
2023/03/13 07:27:09;;;;;;;3.57;3.27;;;;;;;11.35;100.00;95953.94;5052760;28;20175;-65
2023/03/13 07:29:34;;;;;;;3.00;2.90;;;;;;;11.31;100.00;95947.63;5053742;28;20209;-65
2023/03/13 07:32:00;;;;;;;3.50;3.30;;;;;;;11.38;100.00;95945.53;5053280;28;20202;-66
2023/03/13 07:34:25;;;;;;;2.90;2.70;;;;;;;11.31;100.00;95936.31;5054237;28;20224;-65
2023/03/13 07:36:51;;;;;;;3.17;3.07;;;;;;;11.35;100.00;95932.16;5054217;28;20185;-66
2023/03/13 07:39:16;;;;;;;3.20;3.00;;;;;;;11.35;100.00;95926.91;5053846;28;20268;-65
2023/03/13 07:41:42;;;;;;;3.47;3.27;;;;;;;11.33;100.00;95923.72;5053833;28;20180;-65
2023/03/13 07:44:07;;;;;;;2.47;2.37;;;;;;;11.38;100.00;95913.25;5053871;28;20178;-64
2023/03/13 07:46:33;;;;;;;3.00;2.80;;;;;;;11.42;100.00;95924.84;5053328;28;20192;-63
2023/03/13 07:48:58;;;;;;;3.23;3.03;;;;;;;11.38;100.00;95921.94;5052934;28;20289;-63
2023/03/13 07:51:25;;;;;;;2.93;2.80;;;;;;;11.48;100.00;95932.50;5052973;28;20206;-63
2023/03/13 07:53:51;;;;;;;2.53;2.43;;;;;;;11.57;100.00;95920.50;5053155;28;20178;-63
2023/03/13 07:56:21;;;;;;;3.20;3.00;;;;;;;11.51;100.00;95912.84;5053503;28;20189;-63
2023/03/13 07:58:47;;;;;;;4.23;4.07;;;;;;;11.59;100.00;95907.88;5054222;28;20201;-68
2023/03/13 08:01:26;;;;;;;7.67;7.27;;;;;;;12.46;100.00;95896.72;5051547;28;20177;-67
2023/03/13 08:03:55;;;;;;;6.20;5.93;;;;;;;12.01;100.00;95893.94;5052101;28;20192;-60
2023/03/13 08:06:23;;;;;;;11.13;10.57;;;;;;;11.95;100.00;95898.38;5045085;28;20189;-59
2023/03/13 08:08:51;;;;;;;6.13;5.87;;;;;;;11.85;100.00;95895.72;5052960;28;20711;-60
2023/03/13 08:11:20;;;;;;;6.23;5.83;;;;;;;11.89;100.00;95896.78;5053655;28;20204;-60
2023/03/13 08:13:46;;;;;;;8.17;7.83;;;;;;;11.86;100.00;95881.56;5054763;28;20189;-59
2023/03/13 08:16:14;;;;;;;9.40;8.97;;;;;;;11.93;100.00;95871.59;5041784;28;20226;-58
2023/03/13 08:18:41;;;;;;;6.00;5.70;;;;;;;12.00;100.00;95868.72;5031011;28;20249;-59
2023/03/13 08:21:16;;;;;;;25.37;24.07;;;;;;;12.03;100.00;95860.34;5031459;28;20673;-59
2023/03/13 08:23:42;;;;;;;13.70;13.00;;;;;;;12.27;100.00;95843.06;5031156;28;20285;-59
2023/03/13 08:26:13;;;;;;;46.27;43.60;;;;;;;12.50;100.00;95844.41;5034629;28;20190;-57
2023/03/13 08:28:40;;;;;;;4.00;3.80;;;;;;;12.52;100.00;95852.03;5031164;28;20225;-58
2023/03/13 08:31:08;;;;;;;5.67;5.43;;;;;;;12.62;100.00;95846.78;5031667;28;20268;-60
2023/03/13 08:33:33;;;;;;;13.70;12.67;;;;;;;12.82;100.00;95844.16;5030993;28;20185;-59
2023/03/13 08:35:59;;;;;;;18.10;17.20;;;;;;;13.06;100.00;95847.84;5030192;28;20190;-59
2023/03/13 08:38:24;;;;;;;4.63;4.40;;;;;;;13.00;100.00;95858.63;5031487;28;20213;-58
2023/03/13 08:40:55;;;;;;;4.10;3.90;;;;;;;12.97;100.00;95859.16;5014232;28;20198;-58
2023/03/13 08:43:21;;;;;;;4.43;4.13;;;;;;;12.92;100.00;95859.94;5030403;28;20178;-58
2023/03/13 08:45:52;;;;;;;3.40;3.20;;;;;;;13.00;100.00;95846.25;5029928;28;20331;-57
2023/03/13 08:48:18;;;;;;;3.10;2.87;;;;;;;13.00;100.00;95853.34;5030662;28;20198;-58
2023/03/13 08:50:43;;;;;;;2.93;2.77;;;;;;;12.99;100.00;95847.31;5029403;28;20236;-56
2023/03/13 08:53:09;;;;;;;3.73;3.53;;;;;;;13.03;100.00;95839.69;5032270;28;20288;-57
2023/03/13 08:55:34;;;;;;;4.13;3.93;;;;;;;13.04;100.00;95841.28;5032696;28;20232;-58
2023/03/13 08:57:59;;;;;;;5.67;5.30;;;;;;;13.07;100.00;95843.34;5032147;28;20202;-60
2023/03/13 09:00:25;;;;;;;10.17;9.57;;;;;;;12.93;100.00;95841.25;5032120;28;20171;-59
2023/03/13 09:02:51;;;;;;;9.33;8.87;;;;;;;13.10;100.00;95842.81;5032621;28;20672;-57
2023/03/13 09:05:16;;;;;;;11.67;10.97;;;;;;;13.21;100.00;95847.03;5031059;28;20270;-59
2023/03/13 09:07:42;;;;;;;16.33;15.43;;;;;;;13.21;100.00;95853.09;5030039;28;20700;-59
2023/03/13 09:10:08;;;;;;;18.10;17.20;;;;;;;13.35;100.00;95845.44;5032245;28;20193;-59
2023/03/13 09:12:33;;;;;;;21.43;20.33;;;;;;;13.38;100.00;95849.38;5032242;28;20231;-59
2023/03/13 09:14:59;;;;;;;9.17;8.60;;;;;;;13.48;100.00;95850.16;5032601;28;20186;-60
2023/03/13 09:17:25;;;;;;;5.60;5.30;;;;;;;13.39;100.00;95846.50;5043319;28;20241;-60
2023/03/13 09:19:50;;;;;;;4.53;4.23;;;;;;;13.41;100.00;95854.13;5049253;28;20180;-60
2023/03/13 09:22:16;;;;;;;2.90;2.80;;;;;;;13.39;99.44;95850.97;5052341;28;20177;-60
2023/03/13 09:24:43;;;;;;;3.20;3.00;;;;;;;13.49;98.91;95843.81;5052344;28;20198;-60
2023/03/13 09:27:09;;;;;;;3.77;3.47;;;;;;;13.50;98.79;95847.25;5052053;28;20185;-60
2023/03/13 09:29:38;;;;;;;13.23;12.57;;;;;;;13.40;98.88;95845.44;5050533;28;20198;-59
2023/03/13 09:32:04;;;;;;;3.20;2.90;;;;;;;13.62;99.38;95839.84;5052804;28;20190;-59
2023/03/13 09:34:30;;;;;;;6.37;5.97;;;;;;;13.75;98.73;95849.81;5051550;28;20272;-57
2023/03/13 09:36:56;;;;;;;17.73;16.73;;;;;;;13.84;97.70;95850.03;5051109;28;20213;-60
2023/03/13 09:39:21;;;;;;;22.07;20.97;;;;;;;13.86;97.13;95858.47;5051688;28;20229;-60
2023/03/13 09:42:18;;;;;;;17.03;16.10;;;;;;;13.82;97.58;95857.44;5047200;28;20571;-57
2023/03/13 09:44:59;;;;;;;7.90;7.30;;;;;;;13.68;96.63;95863.25;5050024;28;20723;-58
2023/03/13 09:47:41;;;;;;;6.33;5.87;;;;;;;13.79;96.47;95863.22;5051522;28;20584;-58
2023/03/13 09:50:22;;;;;;;3.73;3.53;;;;;;;13.88;96.23;95867.66;5051326;28;20247;-58
2023/03/13 09:52:53;;;;;;;4.37;4.07;;;;;;;13.94;95.60;95876.34;5051624;28;20828;-55
2023/03/13 09:55:23;;;;;;;4.37;4.17;;;;;;;13.84;95.35;95879.78;5051548;28;20174;-54
2023/03/13 09:58:13;;;;;;;3.40;3.20;;;;;;;14.11;94.08;95871.50;5050950;28;20263;-56
2023/03/13 10:00:47;;;;;;;2.83;2.73;;;;;;;14.40;92.53;95876.94;5038360;28;20175;-58
2023/03/13 10:03:29;;;;;;;11.87;11.27;;;;;;;14.44;91.70;95883.22;5052548;28;20180;-59
2023/03/13 10:05:58;;;;;;;11.97;11.37;;;;;;;14.64;91.29;95871.78;5051103;28;20184;-60
2023/03/13 10:08:30;;;;;;;10.10;9.57;;;;;;;14.87;89.23;95871.88;5051330;28;20201;-60
2023/03/13 10:11:26;;;;;;;6.43;6.13;;;;;;;14.91;88.09;95857.06;5052168;28;20201;-58
2023/03/13 10:14:15;;;;;;;8.20;7.60;;;;;;;15.01;87.41;95855.41;5039622;28;20178;-59
2023/03/13 10:17:10;;;;;;;23.17;22.00;;;;;;;15.13;86.11;95846.06;5040217;28;20235;-59
2023/03/13 10:19:41;;;;;;;11.43;10.80;;;;;;;15.12;85.03;95838.41;5054225;28;20264;-59
2023/03/13 10:22:18;;;;;;;8.00;7.57;;;;;;;15.26;83.59;95834.06;5054753;28;20181;-59
2023/03/13 10:24:55;;;;;;;8.77;8.27;;;;;;;15.19;82.74;95823.03;5055775;28;20173;-60
2023/03/13 10:27:20;;;;;;;6.03;5.73;;;;;;;15.04;82.56;95826.63;5055273;28;20200;-60
2023/03/13 10:29:46;;;;;;;11.03;10.13;;;;;;;15.04;81.78;95826.63;5071162;28;20202;-59
2023/03/13 10:32:17;;;;;;;7.55;7.15;;;;;;;15.15;82.01;95819.41;5054850;28;20597;-60
2023/03/13 10:34:57;;;;;;;9.73;9.23;;;;;;;15.18;81.35;95819.63;5055991;28;20531;-57
2023/03/13 10:37:24;;;;;;;11.45;10.82;;;;;;;15.40;81.06;95825.19;5055630;28;20269;-63
2023/03/13 10:39:50;;;;;;;48.70;45.97;;;;;;;15.58;79.80;95828.22;5054778;28;20285;-60
2023/03/13 10:42:45;;;;;;;72.63;68.85;;;;;;;15.64;78.92;95822.59;5078942;22;20232;-60
2023/03/13 10:45:25;;;;;;;53.72;50.95;;;;;;;15.90;78.99;95825.72;5058440;28;20257;-60
2023/03/13 10:48:11;;;;;;;18.48;17.48;;;;;;;15.79;77.83;95825.06;5040939;28;20211;-61
2023/03/13 10:50:43;;;;;;;14.55;13.75;;;;;;;15.98;76.80;95819.81;5085943;28;20196;-61
2023/03/13 10:53:29;;;;;;;15.10;14.30;;;;;;;15.92;76.57;95815.66;5077145;28;20172;-61
2023/03/13 10:56:09;;;;;;;21.90;20.73;;;;;;;15.83;76.63;95811.28;5093711;28;20648;-61
2023/03/13 10:58:44;;;;;;;30.10;28.55;;;;;;;15.92;77.36;95804.28;5086034;28;20200;-60
2023/03/13 11:01:32;;;;;;;28.85;27.13;;;;;;;15.93;76.86;95792.66;5111296;22;20289;-58
2023/03/13 11:04:00;;;;;;;39.45;37.40;;;;;;;15.99;77.33;95794.16;5106129;28;20195;-60
2023/03/13 11:06:36;;;;;;;25.58;24.13;;;;;;;16.06;76.58;95794.56;5114308;28;20191;-58
2023/03/13 11:09:16;;;;;;;29.27;27.52;;;;;;;16.23;75.74;95792.22;5115249;28;20682;-60
2023/03/13 11:11:45;;;;;;;27.20;25.83;;;;;;;16.40;74.63;95789.06;5105197;28;20231;-59
2023/03/13 11:14:19;;;;;;;26.77;25.23;;;;;;;16.53;73.69;95791.00;5114571;28;20172;-61
2023/03/13 11:16:49;;;;;;;34.58;32.42;;;;;;;16.37;74.66;95792.31;5109132;28;20558;-60
2023/03/13 11:19:53;;;;;;;18.80;17.88;;;;;;;16.63;73.47;95789.00;5105798;28;20276;-61
2023/03/13 11:22:26;;;;;;;16.73;15.77;;;;;;;17.28;71.60;95778.34;5112580;28;20563;-61
2023/03/13 11:25:04;;;;;;;11.32;10.63;;;;;;;17.63;69.71;95779.56;5114981;28;20632;-61
2023/03/13 11:28:03;;;;;;;14.52;13.70;;;;;;;17.73;67.91;95762.66;5114243;28;20250;-61
2023/03/13 11:30:52;;;;;;;13.18;12.13;;;;;;;17.89;67.60;95776.41;5102651;28;20286;-61
2023/03/13 11:33:27;;;;;;;11.15;10.43;;;;;;;17.56;68.00;95742.03;5115385;28;20703;-61
2023/03/13 11:36:27;;;;;;;14.07;13.23;;;;;;;17.49;67.79;95744.31;5115232;28;20262;-61
2023/03/13 11:39:19;;;;;;;10.63;10.02;;;;;;;17.29;69.02;95731.47;5075378;28;20243;-61